This is the latest recevied weather packets stored in our database for station/object WX5KDM. If no packets are shown the sender has not sent any weather packets the latest 10 day(s).
| Time | Temp. | Humidity | Pressure | Rain* | Wind** | Luminosity | Snow |
|---|---|---|---|---|---|---|---|
| 1777757633 | 20° C | 38% | 1016.9 hPa | 0 mm | - | - | - |
| 1777757332 | 20° C | 38% | 1017 hPa | 0 mm | - | - | - |
| 1777757030 | 20° C | 39% | 1016.8 hPa | 0 mm | - | - | - |
| 1777756727 | 20.56° C | 36% | 1016.8 hPa | 0 mm | - | - | - |
| 1777756423 | 21.11° C | 37% | 1017 hPa | 0 mm | - | - | - |
| 1777756121 | 20.56° C | 37% | 1016.7 hPa | 0 mm | - | - | - |
| 1777755817 | 20.56° C | 36% | 1017 hPa | 0 mm | - | - | - |
| 1777755515 | 21.11° C | 37% | 1017 hPa | 0 mm | - | - | - |
| 1777755210 | 21.67° C | 35% | 1017 hPa | 0 mm | - | - | - |
| 1777754908 | 20.56° C | 40% | 1017 hPa | 0 mm | - | - | - |
| 1777754605 | 20.56° C | 37% | 1017.1 hPa | 0 mm | - | - | - |
| 1777754302 | 20° C | 37% | 1017.3 hPa | 0 mm | - | - | - |
| 1777754000 | 20.56° C | 36% | 1017.2 hPa | 0 mm | - | - | - |
| 1777753695 | 22.22° C | 34% | 1017.1 hPa | 0 mm | - | - | - |
| 1777753393 | 22.22° C | 34% | 1017.3 hPa | 0 mm | - | - | - |
| 1777753091 | 21.67° C | 34% | 1017.2 hPa | 0 mm | - | - | - |
| 1777752787 | 22.22° C | 33% | 1017.4 hPa | 0 mm | - | - | - |
| 1777752483 | 21.67° C | 35% | 1017.5 hPa | 0 mm | - | - | - |
| 1777752179 | 22.78° C | 36% | 1017.6 hPa | 0 mm | - | - | - |
| 1777751878 | 22.22° C | 35% | 1017.5 hPa | 0 mm | - | - | - |
| 1777751574 | 21.67° C | 36% | 1017.5 hPa | 0 mm | - | - | - |
| 1777751270 | 21.11° C | 38% | 1017.8 hPa | 0 mm | - | - | - |
| 1777750967 | 21.67° C | 35% | 1017.6 hPa | 0 mm | - | - | - |
| 1777750663 | 21.11° C | 37% | 1017.7 hPa | 0 mm | - | - | - |
| 1777750360 | 20° C | 37% | 1018 hPa | 0 mm | - | - | - |
* Rain latest hour (hover to see other rain measurements)
** Current wind speed in m/s (hover to see current wind gust speed)